sensor_id;sensor_type;location;lat;lon;timestamp;P1;durP1;ratioP1;P2;durP2;ratioP2
52396;SDS011;38322;53.108;6.308;2023-03-19T06:03:26;10.07;;;9.05;;
52396;SDS011;38322;53.108;6.308;2023-03-19T06:05:52;9.95;;;7.40;;
52396;SDS011;38322;53.108;6.308;2023-03-19T06:08:18;8.85;;;6.82;;
52396;SDS011;38322;53.108;6.308;2023-03-19T06:10:44;9.00;;;7.63;;
52396;SDS011;38322;53.108;6.308;2023-03-19T06:13:10;9.07;;;8.07;;
52396;SDS011;38322;53.108;6.308;2023-03-19T06:15:36;9.20;;;7.85;;
52396;SDS011;38322;53.108;6.308;2023-03-19T06:18:02;13.68;;;10.13;;
52396;SDS011;38322;53.108;6.308;2023-03-19T06:20:28;9.45;;;7.68;;
52396;SDS011;38322;53.108;6.308;2023-03-19T06:22:54;10.68;;;7.30;;
52396;SDS011;38322;53.108;6.308;2023-03-19T06:25:20;10.75;;;7.90;;
52396;SDS011;38322;53.108;6.308;2023-03-19T06:27:46;11.30;;;8.73;;
52396;SDS011;38322;53.108;6.308;2023-03-19T06:30:12;12.35;;;8.13;;
52396;SDS011;38322;53.108;6.308;2023-03-19T06:32:38;9.93;;;7.53;;
52396;SDS011;38322;53.108;6.308;2023-03-19T06:35:04;13.63;;;9.02;;
52396;SDS011;38322;53.108;6.308;2023-03-19T06:37:31;12.15;;;8.38;;
52396;SDS011;38322;53.108;6.308;2023-03-19T06:39:57;10.13;;;7.55;;
52396;SDS011;38322;53.108;6.308;2023-03-19T06:42:23;12.00;;;8.82;;
52396;SDS011;38322;53.108;6.308;2023-03-19T06:44:49;9.02;;;7.50;;
52396;SDS011;38322;53.108;6.308;2023-03-19T06:47:14;10.27;;;7.22;;
52396;SDS011;38322;53.108;6.308;2023-03-19T06:49:40;12.68;;;8.07;;
52396;SDS011;38322;53.108;6.308;2023-03-19T06:52:06;11.50;;;7.60;;
52396;SDS011;38322;53.108;6.308;2023-03-19T06:54:32;9.43;;;7.53;;
52396;SDS011;38322;53.108;6.308;2023-03-19T06:56:58;8.95;;;7.30;;
52396;SDS011;38322;53.108;6.308;2023-03-19T06:59:24;9.05;;;7.65;;
52396;SDS011;38322;53.108;6.308;2023-03-19T07:01:50;9.02;;;7.80;;
52396;SDS011;38322;53.108;6.308;2023-03-19T07:04:17;10.88;;;7.70;;
52396;SDS011;38322;53.108;6.308;2023-03-19T07:06:43;9.77;;;6.85;;
52396;SDS011;38322;53.108;6.308;2023-03-19T07:09:09;10.00;;;7.38;;
52396;SDS011;38322;53.108;6.308;2023-03-19T07:11:35;8.18;;;7.15;;
52396;SDS011;38322;53.108;6.308;2023-03-19T07:14:02;8.95;;;7.38;;
52396;SDS011;38322;53.108;6.308;2023-03-19T07:16:28;12.27;;;7.78;;
52396;SDS011;38322;53.108;6.308;2023-03-19T07:18:54;9.60;;;8.05;;
52396;SDS011;38322;53.108;6.308;2023-03-19T07:21:21;9.30;;;7.82;;
52396;SDS011;38322;53.108;6.308;2023-03-19T07:23:47;8.43;;;6.75;;
52396;SDS011;38322;53.108;6.308;2023-03-19T07:26:14;10.30;;;7.65;;
52396;SDS011;38322;53.108;6.308;2023-03-19T07:28:41;9.88;;;8.25;;
52396;SDS011;38322;53.108;6.308;2023-03-19T07:31:06;11.38;;;8.57;;
52396;SDS011;38322;53.108;6.308;2023-03-19T07:33:32;9.52;;;8.52;;
52396;SDS011;38322;53.108;6.308;2023-03-19T07:35:58;9.85;;;8.70;;
52396;SDS011;38322;53.108;6.308;2023-03-19T07:38:24;13.43;;;9.52;;
52396;SDS011;38322;53.108;6.308;2023-03-19T07:40:50;12.38;;;10.57;;
52396;SDS011;38322;53.108;6.308;2023-03-19T07:43:16;15.15;;;10.52;;
52396;SDS011;38322;53.108;6.308;2023-03-19T07:45:42;13.30;;;10.43;;
52396;SDS011;38322;53.108;6.308;2023-03-19T07:48:09;13.98;;;10.68;;
52396;SDS011;38322;53.108;6.308;2023-03-19T07:50:35;14.07;;;10.90;;
52396;SDS011;38322;53.108;6.308;2023-03-19T07:53:01;13.52;;;10.75;;
52396;SDS011;38322;53.108;6.308;2023-03-19T07:55:27;14.10;;;11.43;;
52396;SDS011;38322;53.108;6.308;2023-03-19T07:57:53;14.85;;;11.55;;
52396;SDS011;38322;53.108;6.308;2023-03-19T08:00:19;14.88;;;11.63;;
52396;SDS011;38322;53.108;6.308;2023-03-19T08:02:46;15.80;;;13.20;;
52396;SDS011;38322;53.108;6.308;2023-03-19T08:05:12;13.63;;;11.98;;
52396;SDS011;38322;53.108;6.308;2023-03-19T08:07:38;16.88;;;13.32;;
52396;SDS011;38322;53.108;6.308;2023-03-19T08:10:05;16.98;;;14.52;;
52396;SDS011;38322;53.108;6.308;2023-03-19T08:12:32;20.77;;;15.77;;
52396;SDS011;38322;53.108;6.308;2023-03-19T08:15:04;21.85;;;15.52;;
52396;SDS011;38322;53.108;6.308;2023-03-19T08:17:30;17.73;;;14.77;;
52396;SDS011;38322;53.108;6.308;2023-03-19T08:20:02;20.92;;;15.80;;
52396;SDS011;38322;53.108;6.308;2023-03-19T08:22:29;20.33;;;15.15;;
52396;SDS011;38322;53.108;6.308;2023-03-19T08:24:55;18.25;;;15.35;;
52396;SDS011;38322;53.108;6.308;2023-03-19T08:27:21;17.08;;;14.93;;
52396;SDS011;38322;53.108;6.308;2023-03-19T08:29:47;18.77;;;15.15;;
52396;SDS011;38322;53.108;6.308;2023-03-19T08:32:12;17.35;;;15.52;;
52396;SDS011;38322;53.108;6.308;2023-03-19T08:34:38;17.55;;;13.23;;
52396;SDS011;38322;53.108;6.308;2023-03-19T08:37:04;17.38;;;13.60;;
52396;SDS011;38322;53.108;6.308;2023-03-19T08:39:30;15.55;;;13.40;;
52396;SDS011;38322;53.108;6.308;2023-03-19T08:41:56;16.10;;;13.75;;
52396;SDS011;38322;53.108;6.308;2023-03-19T08:44:22;13.90;;;12.43;;
52396;SDS011;38322;53.108;6.308;2023-03-19T08:46:48;15.82;;;13.18;;
52396;SDS011;38322;53.108;6.308;2023-03-19T08:49:14;16.70;;;13.15;;
52396;SDS011;38322;53.108;6.308;2023-03-19T08:51:40;17.73;;;14.27;;
52396;SDS011;38322;53.108;6.308;2023-03-19T08:54:06;17.48;;;13.60;;
52396;SDS011;38322;53.108;6.308;2023-03-19T08:56:33;14.90;;;12.20;;
52396;SDS011;38322;53.108;6.308;2023-03-19T08:58:59;15.25;;;12.15;;
52396;SDS011;38322;53.108;6.308;2023-03-19T09:01:25;16.65;;;12.63;;
52396;SDS011;38322;53.108;6.308;2023-03-19T09:03:51;18.85;;;12.57;;
52396;SDS011;38322;53.108;6.308;2023-03-19T09:06:17;15.25;;;13.40;;
52396;SDS011;38322;53.108;6.308;2023-03-19T09:08:42;18.15;;;13.30;;
52396;SDS011;38322;53.108;6.308;2023-03-19T09:11:09;14.00;;;12.00;;
52396;SDS011;38322;53.108;6.308;2023-03-19T09:13:35;16.40;;;12.77;;
52396;SDS011;38322;53.108;6.308;2023-03-19T09:16:01;14.95;;;12.43;;
52396;SDS011;38322;53.108;6.308;2023-03-19T09:18:28;13.40;;;11.98;;
52396;SDS011;38322;53.108;6.308;2023-03-19T09:20:53;14.95;;;11.73;;
52396;SDS011;38322;53.108;6.308;2023-03-19T09:23:20;12.90;;;11.50;;
52396;SDS011;38322;53.108;6.308;2023-03-19T09:25:47;12.95;;;10.90;;
52396;SDS011;38322;53.108;6.308;2023-03-19T09:28:13;19.17;;;12.60;;
52396;SDS011;38322;53.108;6.308;2023-03-19T09:30:38;15.45;;;12.85;;
52396;SDS011;38322;53.108;6.308;2023-03-19T09:33:04;14.38;;;11.93;;
52396;SDS011;38322;53.108;6.308;2023-03-19T09:35:31;14.65;;;11.90;;
52396;SDS011;38322;53.108;6.308;2023-03-19T09:37:58;15.05;;;12.52;;
52396;SDS011;38322;53.108;6.308;2023-03-19T09:40:25;12.30;;;9.75;;
52396;SDS011;38322;53.108;6.308;2023-03-19T09:43:17;14.68;;;11.00;;
52396;SDS011;38322;53.108;6.308;2023-03-19T09:46:10;17.02;;;12.23;;
52396;SDS011;38322;53.108;6.308;2023-03-19T09:51:16;18.60;;;14.82;;
52396;SDS011;38322;53.108;6.308;2023-03-19T09:53:55;18.58;;;13.80;;
52396;SDS011;38322;53.108;6.308;2023-03-19T09:56:24;18.65;;;12.13;;
52396;SDS011;38322;53.108;6.308;2023-03-19T09:58:52;17.42;;;12.25;;
52396;SDS011;38322;53.108;6.308;2023-03-19T10:01:22;16.17;;;13.02;;
52396;SDS011;38322;53.108;6.308;2023-03-19T10:06:33;18.38;;;12.18;;
52396;SDS011;38322;53.108;6.308;2023-03-19T10:11:49;18.23;;;14.75;;
52396;SDS011;38322;53.108;6.308;2023-03-19T10:17:11;16.73;;;13.55;;
52396;SDS011;38322;53.108;6.308;2023-03-19T10:19:44;26.10;;;16.80;;
52396;SDS011;38322;53.108;6.308;2023-03-19T10:22:18;21.48;;;16.95;;
52396;SDS011;38322;53.108;6.308;2023-03-19T10:24:48;23.65;;;19.27;;
52396;SDS011;38322;53.108;6.308;2023-03-19T10:27:18;26.48;;;19.75;;
52396;SDS011;38322;53.108;6.308;2023-03-19T10:29:45;30.02;;;22.23;;
52396;SDS011;38322;53.108;6.308;2023-03-19T10:32:17;29.55;;;20.77;;
52396;SDS011;38322;53.108;6.308;2023-03-19T10:34:52;29.70;;;22.85;;
52396;SDS011;38322;53.108;6.308;2023-03-19T10:37:20;27.40;;;20.90;;
52396;SDS011;38322;53.108;6.308;2023-03-19T10:39:51;26.40;;;19.60;;
52396;SDS011;38322;53.108;6.308;2023-03-19T10:45:19;22.85;;;16.52;;
52396;SDS011;38322;53.108;6.308;2023-03-19T10:47:52;23.40;;;17.60;;
52396;SDS011;38322;53.108;6.308;2023-03-19T10:50:22;24.52;;;17.70;;
52396;SDS011;38322;53.108;6.308;2023-03-19T10:55:37;25.20;;;18.65;;
52396;SDS011;38322;53.108;6.308;2023-03-19T10:58:15;23.20;;;18.33;;
52396;SDS011;38322;53.108;6.308;2023-03-19T11:00:46;23.00;;;17.25;;
52396;SDS011;38322;53.108;6.308;2023-03-19T11:03:33;26.02;;;18.98;;
52396;SDS011;38322;53.108;6.308;2023-03-19T11:06:16;20.02;;;16.70;;
52396;SDS011;38322;53.108;6.308;2023-03-19T11:08:54;26.38;;;19.45;;
52396;SDS011;38322;53.108;6.308;2023-03-19T11:11:23;26.38;;;18.40;;
52396;SDS011;38322;53.108;6.308;2023-03-19T11:13:51;25.10;;;18.60;;
52396;SDS011;38322;53.108;6.308;2023-03-19T11:16:17;25.98;;;19.70;;
52396;SDS011;38322;53.108;6.308;2023-03-19T11:18:44;27.48;;;19.33;;
52396;SDS011;38322;53.108;6.308;2023-03-19T11:21:28;28.20;;;19.13;;
52396;SDS011;38322;53.108;6.308;2023-03-19T11:24:01;27.55;;;20.40;;
52396;SDS011;38322;53.108;6.308;2023-03-19T11:26:35;27.35;;;20.27;;
52396;SDS011;38322;53.108;6.308;2023-03-19T11:29:02;28.65;;;20.70;;
52396;SDS011;38322;53.108;6.308;2023-03-19T11:31:33;28.38;;;19.13;;
52396;SDS011;38322;53.108;6.308;2023-03-19T11:36:57;26.52;;;19.17;;
52396;SDS011;38322;53.108;6.308;2023-03-19T11:44:57;29.95;;;21.20;;
52396;SDS011;38322;53.108;6.308;2023-03-19T11:50:45;29.83;;;20.47;;
52396;SDS011;38322;53.108;6.308;2023-03-19T11:53:18;30.15;;;21.77;;
52396;SDS011;38322;53.108;6.308;2023-03-19T11:56:15;36.25;;;23.20;;
52396;SDS011;38322;53.108;6.308;2023-03-19T11:59:03;32.83;;;21.75;;
52396;SDS011;38322;53.108;6.308;2023-03-19T12:01:38;34.10;;;22.92;;
52396;SDS011;38322;53.108;6.308;2023-03-19T12:04:26;29.95;;;20.30;;
52396;SDS011;38322;53.108;6.308;2023-03-19T12:07:18;34.22;;;21.00;;
52396;SDS011;38322;53.108;6.308;2023-03-19T12:23:26;32.20;;;19.80;;
52396;SDS011;38322;53.108;6.308;2023-03-19T12:26:08;30.48;;;20.25;;
52396;SDS011;38322;53.108;6.308;2023-03-19T12:28:56;31.77;;;20.92;;
52396;SDS011;38322;53.108;6.308;2023-03-19T12:31:33;34.42;;;21.08;;
52396;SDS011;38322;53.108;6.308;2023-03-19T12:34:11;33.05;;;22.38;;
52396;SDS011;38322;53.108;6.308;2023-03-19T12:39:37;29.45;;;19.00;;
52396;SDS011;38322;53.108;6.308;2023-03-19T12:42:09;31.10;;;21.33;;
52396;SDS011;38322;53.108;6.308;2023-03-19T12:47:17;31.13;;;20.15;;
52396;SDS011;38322;53.108;6.308;2023-03-19T12:49:52;33.47;;;20.67;;
52396;SDS011;38322;53.108;6.308;2023-03-19T12:52:26;32.80;;;21.45;;
52396;SDS011;38322;53.108;6.308;2023-03-19T12:54:58;36.08;;;21.65;;
52396;SDS011;38322;53.108;6.308;2023-03-19T12:57:40;42.25;;;23.65;;
52396;SDS011;38322;53.108;6.308;2023-03-19T13:00:19;40.80;;;22.95;;
52396;SDS011;38322;53.108;6.308;2023-03-19T13:05:45;38.70;;;23.02;;
52396;SDS011;38322;53.108;6.308;2023-03-19T13:08:28;38.03;;;23.48;;
52396;SDS011;38322;53.108;6.308;2023-03-19T13:11:02;36.33;;;21.00;;
52396;SDS011;38322;53.108;6.308;2023-03-19T13:13:38;35.53;;;21.83;;
52396;SDS011;38322;53.108;6.308;2023-03-19T13:16:32;33.55;;;21.30;;
52396;SDS011;38322;53.108;6.308;2023-03-19T13:19:12;39.72;;;22.63;;
52396;SDS011;38322;53.108;6.308;2023-03-19T13:21:45;38.65;;;21.52;;
52396;SDS011;38322;53.108;6.308;2023-03-19T13:24:18;37.78;;;23.92;;
52396;SDS011;38322;53.108;6.308;2023-03-19T13:26:53;34.95;;;22.85;;
52396;SDS011;38322;53.108;6.308;2023-03-19T13:29:22;32.47;;;20.98;;
52396;SDS011;38322;53.108;6.308;2023-03-19T13:31:50;33.00;;;21.13;;
52396;SDS011;38322;53.108;6.308;2023-03-19T13:36:50;37.85;;;25.00;;
52396;SDS011;38322;53.108;6.308;2023-03-19T13:39:20;36.97;;;22.65;;
52396;SDS011;38322;53.108;6.308;2023-03-19T13:41:52;37.00;;;22.27;;
52396;SDS011;38322;53.108;6.308;2023-03-19T13:44:33;33.35;;;22.50;;
52396;SDS011;38322;53.108;6.308;2023-03-19T13:47:36;38.43;;;21.87;;
52396;SDS011;38322;53.108;6.308;2023-03-19T13:52:40;29.20;;;17.38;;
52396;SDS011;38322;53.108;6.308;2023-03-19T13:57:52;23.92;;;15.40;;
52396;SDS011;38322;53.108;6.308;2023-03-19T14:00:55;26.33;;;15.63;;
52396;SDS011;38322;53.108;6.308;2023-03-19T14:03:21;26.15;;;14.18;;
52396;SDS011;38322;53.108;6.308;2023-03-19T14:05:50;25.92;;;14.85;;
52396;SDS011;38322;53.108;6.308;2023-03-19T14:08:21;23.10;;;14.95;;
52396;SDS011;38322;53.108;6.308;2023-03-19T14:10:51;19.23;;;12.38;;
52396;SDS011;38322;53.108;6.308;2023-03-19T14:13:24;23.48;;;13.85;;
52396;SDS011;38322;53.108;6.308;2023-03-19T14:15:52;26.38;;;15.27;;
52396;SDS011;38322;53.108;6.308;2023-03-19T14:18:24;26.73;;;15.18;;
52396;SDS011;38322;53.108;6.308;2023-03-19T14:20:57;26.23;;;15.13;;
52396;SDS011;38322;53.108;6.308;2023-03-19T14:23:26;25.33;;;15.18;;
52396;SDS011;38322;53.108;6.308;2023-03-19T14:31:17;30.13;;;16.85;;
52396;SDS011;38322;53.108;6.308;2023-03-19T14:36:57;28.00;;;17.70;;
52396;SDS011;38322;53.108;6.308;2023-03-19T14:39:39;27.40;;;17.30;;
52396;SDS011;38322;53.108;6.308;2023-03-19T14:42:24;29.83;;;18.08;;
52396;SDS011;38322;53.108;6.308;2023-03-19T14:45:07;30.25;;;18.63;;
52396;SDS011;38322;53.108;6.308;2023-03-19T14:47:41;28.08;;;16.88;;
52396;SDS011;38322;53.108;6.308;2023-03-19T14:55:27;37.95;;;19.75;;
52396;SDS011;38322;53.108;6.308;2023-03-19T14:58:00;28.65;;;18.30;;
52396;SDS011;38322;53.108;6.308;2023-03-19T15:00:26;30.25;;;19.23;;
52396;SDS011;38322;53.108;6.308;2023-03-19T15:02:52;28.65;;;18.45;;
52396;SDS011;38322;53.108;6.308;2023-03-19T15:05:26;35.88;;;20.85;;
52396;SDS011;38322;53.108;6.308;2023-03-19T15:08:00;32.55;;;20.90;;
52396;SDS011;38322;53.108;6.308;2023-03-19T15:10:43;41.35;;;21.75;;
52396;SDS011;38322;53.108;6.308;2023-03-19T15:16:22;43.80;;;25.73;;
52396;SDS011;38322;53.108;6.308;2023-03-19T15:18:53;42.92;;;25.30;;
52396;SDS011;38322;53.108;6.308;2023-03-19T15:21:20;43.00;;;26.92;;
52396;SDS011;38322;53.108;6.308;2023-03-19T15:23:47;46.45;;;24.48;;
52396;SDS011;38322;53.108;6.308;2023-03-19T15:26:13;48.38;;;27.45;;
52396;SDS011;38322;53.108;6.308;2023-03-19T15:28:44;41.50;;;25.33;;
52396;SDS011;38322;53.108;6.308;2023-03-19T15:31:13;42.00;;;25.13;;
52396;SDS011;38322;53.108;6.308;2023-03-19T15:33:40;34.38;;;22.50;;
52396;SDS011;38322;53.108;6.308;2023-03-19T15:36:07;40.75;;;24.73;;
52396;SDS011;38322;53.108;6.308;2023-03-19T15:38:52;49.63;;;26.80;;
52396;SDS011;38322;53.108;6.308;2023-03-19T15:41:23;49.72;;;26.90;;
52396;SDS011;38322;53.108;6.308;2023-03-19T15:43:51;45.17;;;27.92;;
52396;SDS011;38322;53.108;6.308;2023-03-19T15:46:20;48.30;;;27.30;;
52396;SDS011;38322;53.108;6.308;2023-03-19T15:48:50;44.22;;;24.48;;
52396;SDS011;38322;53.108;6.308;2023-03-19T15:51:20;50.60;;;26.63;;
52396;SDS011;38322;53.108;6.308;2023-03-19T15:53:49;46.45;;;25.50;;
52396;SDS011;38322;53.108;6.308;2023-03-19T15:56:15;41.05;;;24.98;;
52396;SDS011;38322;53.108;6.308;2023-03-19T15:58:44;44.15;;;25.60;;
52396;SDS011;38322;53.108;6.308;2023-03-19T16:01:12;43.55;;;24.52;;
52396;SDS011;38322;53.108;6.308;2023-03-19T16:03:43;42.65;;;24.17;;
52396;SDS011;38322;53.108;6.308;2023-03-19T16:06:12;41.13;;;22.20;;
52396;SDS011;38322;53.108;6.308;2023-03-19T16:08:44;39.72;;;21.45;;
52396;SDS011;38322;53.108;6.308;2023-03-19T16:11:13;42.17;;;23.50;;
52396;SDS011;38322;53.108;6.308;2023-03-19T16:14:00;45.10;;;22.92;;
52396;SDS011;38322;53.108;6.308;2023-03-19T16:16:33;41.78;;;22.40;;
52396;SDS011;38322;53.108;6.308;2023-03-19T16:18:59;48.58;;;25.95;;
52396;SDS011;38322;53.108;6.308;2023-03-19T16:24:03;53.28;;;22.90;;
52396;SDS011;38322;53.108;6.308;2023-03-19T16:26:48;39.78;;;20.08;;
52396;SDS011;38322;53.108;6.308;2023-03-19T16:29:23;33.03;;;19.40;;
52396;SDS011;38322;53.108;6.308;2023-03-19T16:31:52;33.90;;;18.33;;
52396;SDS011;38322;53.108;6.308;2023-03-19T16:34:24;40.13;;;20.35;;
52396;SDS011;38322;53.108;6.308;2023-03-19T16:36:54;35.95;;;22.33;;
52396;SDS011;38322;53.108;6.308;2023-03-19T16:39:23;39.45;;;22.98;;
52396;SDS011;38322;53.108;6.308;2023-03-19T16:44:53;46.22;;;23.08;;
52396;SDS011;38322;53.108;6.308;2023-03-19T16:47:20;46.13;;;22.92;;
52396;SDS011;38322;53.108;6.308;2023-03-19T16:49:46;41.67;;;20.27;;
52396;SDS011;38322;53.108;6.308;2023-03-19T16:52:13;45.92;;;22.80;;
52396;SDS011;38322;53.108;6.308;2023-03-19T16:54:42;48.67;;;22.75;;
52396;SDS011;38322;53.108;6.308;2023-03-19T16:57:10;52.53;;;24.27;;
52396;SDS011;38322;53.108;6.308;2023-03-19T16:59:37;45.58;;;21.50;;
52396;SDS011;38322;53.108;6.308;2023-03-19T17:02:13;48.60;;;22.90;;
52396;SDS011;38322;53.108;6.308;2023-03-19T17:04:41;54.65;;;22.63;;
52396;SDS011;38322;53.108;6.308;2023-03-19T17:07:08;45.88;;;23.10;;
52396;SDS011;38322;53.108;6.308;2023-03-19T17:09:34;50.10;;;21.40;;
52396;SDS011;38322;53.108;6.308;2023-03-19T17:12:01;45.60;;;23.33;;
52396;SDS011;38322;53.108;6.308;2023-03-19T17:14:29;48.63;;;22.17;;
52396;SDS011;38322;53.108;6.308;2023-03-19T17:16:56;40.67;;;20.10;;
52396;SDS011;38322;53.108;6.308;2023-03-19T17:19:24;56.15;;;22.00;;
52396;SDS011;38322;53.108;6.308;2023-03-19T17:21:54;51.45;;;20.88;;
52396;SDS011;38322;53.108;6.308;2023-03-19T17:24:23;45.28;;;20.67;;
52396;SDS011;38322;53.108;6.308;2023-03-19T17:26:57;35.70;;;18.60;;
52396;SDS011;38322;53.108;6.308;2023-03-19T17:29:25;32.55;;;15.07;;
52396;SDS011;38322;53.108;6.308;2023-03-19T17:31:51;30.80;;;15.05;;
52396;SDS011;38322;53.108;6.308;2023-03-19T17:34:20;26.75;;;14.52;;
52396;SDS011;38322;53.108;6.308;2023-03-19T17:36:52;27.77;;;13.95;;
52396;SDS011;38322;53.108;6.308;2023-03-19T17:39:20;23.75;;;14.05;;
52396;SDS011;38322;53.108;6.308;2023-03-19T17:41:47;22.27;;;12.93;;
52396;SDS011;38322;53.108;6.308;2023-03-19T17:44:14;25.05;;;14.65;;
52396;SDS011;38322;53.108;6.308;2023-03-19T17:46:41;25.08;;;13.40;;
52396;SDS011;38322;53.108;6.308;2023-03-19T17:49:11;21.08;;;13.38;;
52396;SDS011;38322;53.108;6.308;2023-03-19T17:51:42;18.40;;;10.07;;
52396;SDS011;38322;53.108;6.308;2023-03-19T17:54:09;25.90;;;12.02;;
52396;SDS011;38322;53.108;6.308;2023-03-19T17:56:36;23.20;;;11.77;;
52396;SDS011;38322;53.108;6.308;2023-03-19T17:59:02;21.05;;;11.43;;
52396;SDS011;38322;53.108;6.308;2023-03-19T18:01:28;15.32;;;9.63;;
52396;SDS011;38322;53.108;6.308;2023-03-19T18:03:55;19.52;;;11.15;;
52396;SDS011;38322;53.108;6.308;2023-03-19T18:06:23;20.67;;;11.75;;
52396;SDS011;38322;53.108;6.308;2023-03-19T18:08:52;20.02;;;12.65;;
52396;SDS011;38322;53.108;6.308;2023-03-19T18:11:19;20.33;;;9.55;;
52396;SDS011;38322;53.108;6.308;2023-03-19T18:13:45;18.20;;;11.10;;
52396;SDS011;38322;53.108;6.308;2023-03-19T18:16:25;22.70;;;12.02;;
52396;SDS011;38322;53.108;6.308;2023-03-19T18:18:54;21.38;;;11.55;;
52396;SDS011;38322;53.108;6.308;2023-03-19T18:21:23;18.30;;;11.50;;
52396;SDS011;38322;53.108;6.308;2023-03-19T18:23:49;21.85;;;11.10;;
52396;SDS011;38322;53.108;6.308;2023-03-19T18:26:15;22.40;;;10.85;;
52396;SDS011;38322;53.108;6.308;2023-03-19T18:28:42;18.20;;;9.18;;
52396;SDS011;38322;53.108;6.308;2023-03-19T18:31:13;17.08;;;8.95;;
52396;SDS011;38322;53.108;6.308;2023-03-19T18:33:43;13.63;;;8.52;;
52396;SDS011;38322;53.108;6.308;2023-03-19T18:36:13;17.17;;;8.27;;
52396;SDS011;38322;53.108;6.308;2023-03-19T18:38:44;13.70;;;8.50;;
52396;SDS011;38322;53.108;6.308;2023-03-19T18:41:12;15.98;;;7.85;;
52396;SDS011;38322;53.108;6.308;2023-03-19T18:43:43;16.23;;;7.78;;
52396;SDS011;38322;53.108;6.308;2023-03-19T18:46:19;12.60;;;6.38;;
52396;SDS011;38322;53.108;6.308;2023-03-19T18:48:47;16.30;;;8.40;;
52396;SDS011;38322;53.108;6.308;2023-03-19T18:51:13;14.75;;;6.38;;
52396;SDS011;38322;53.108;6.308;2023-03-19T18:53:39;12.88;;;7.38;;
52396;SDS011;38322;53.108;6.308;2023-03-19T18:56:23;10.35;;;6.70;;
52396;SDS011;38322;53.108;6.308;2023-03-19T18:58:53;12.57;;;7.40;;
52396;SDS011;38322;53.108;6.308;2023-03-19T19:01:20;8.65;;;5.47;;
52396;SDS011;38322;53.108;6.308;2023-03-19T19:03:46;11.60;;;5.65;;
52396;SDS011;38322;53.108;6.308;2023-03-19T19:06:17;20.48;;;6.53;;
52396;SDS011;38322;53.108;6.308;2023-03-19T19:08:46;9.13;;;5.47;;
52396;SDS011;38322;53.108;6.308;2023-03-19T19:11:13;9.13;;;5.60;;
52396;SDS011;38322;53.108;6.308;2023-03-19T19:13:40;10.25;;;7.25;;
52396;SDS011;38322;53.108;6.308;2023-03-19T19:16:16;9.50;;;7.25;;
52396;SDS011;38322;53.108;6.308;2023-03-19T19:18:45;10.95;;;6.53;;
52396;SDS011;38322;53.108;6.308;2023-03-19T19:21:12;10.50;;;7.05;;
52396;SDS011;38322;53.108;6.308;2023-03-19T19:23:38;11.82;;;7.35;;
52396;SDS011;38322;53.108;6.308;2023-03-19T19:26:05;10.75;;;8.45;;
52396;SDS011;38322;53.108;6.308;2023-03-19T19:28:33;13.73;;;8.80;;
52396;SDS011;38322;53.108;6.308;2023-03-19T19:31:01;19.75;;;10.00;;
52396;SDS011;38322;53.108;6.308;2023-03-19T19:33:30;13.15;;;9.18;;
52396;SDS011;38322;53.108;6.308;2023-03-19T19:35:59;12.13;;;8.25;;
52396;SDS011;38322;53.108;6.308;2023-03-19T19:38:26;10.95;;;7.63;;
52396;SDS011;38322;53.108;6.308;2023-03-19T19:40:52;13.80;;;8.05;;
52396;SDS011;38322;53.108;6.308;2023-03-19T19:43:21;16.52;;;9.10;;
52396;SDS011;38322;53.108;6.308;2023-03-19T19:45:49;15.52;;;8.48;;
52396;SDS011;38322;53.108;6.308;2023-03-19T19:48:21;15.25;;;9.25;;
52396;SDS011;38322;53.108;6.308;2023-03-19T19:50:49;17.50;;;8.27;;
52396;SDS011;38322;53.108;6.308;2023-03-19T19:53:15;13.80;;;9.05;;
52396;SDS011;38322;53.108;6.308;2023-03-19T19:55:42;15.98;;;10.18;;
52396;SDS011;38322;53.108;6.308;2023-03-19T19:58:30;16.73;;;9.77;;
52396;SDS011;38322;53.108;6.308;2023-03-19T20:00:58;15.65;;;9.40;;
52396;SDS011;38322;53.108;6.308;2023-03-19T20:03:26;19.35;;;10.82;;
52396;SDS011;38322;53.108;6.308;2023-03-19T20:05:55;11.57;;;8.57;;
52396;SDS011;38322;53.108;6.308;2023-03-19T20:08:21;11.68;;;8.55;;
52396;SDS011;38322;53.108;6.308;2023-03-19T20:10:50;15.10;;;9.27;;
52396;SDS011;38322;53.108;6.308;2023-03-19T20:13:21;13.35;;;9.05;;
52396;SDS011;38322;53.108;6.308;2023-03-19T20:15:52;12.82;;;8.57;;
52396;SDS011;38322;53.108;6.308;2023-03-19T20:18:20;14.07;;;8.48;;
52396;SDS011;38322;53.108;6.308;2023-03-19T20:20:48;11.73;;;8.13;;
52396;SDS011;38322;53.108;6.308;2023-03-19T20:23:16;17.48;;;8.45;;
52396;SDS011;38322;53.108;6.308;2023-03-19T20:25:43;11.27;;;7.57;;
52396;SDS011;38322;53.108;6.308;2023-03-19T20:28:18;12.32;;;8.55;;
52396;SDS011;38322;53.108;6.308;2023-03-19T20:30:47;10.68;;;6.35;;
52396;SDS011;38322;53.108;6.308;2023-03-19T20:33:15;10.07;;;6.85;;
52396;SDS011;38322;53.108;6.308;2023-03-19T20:35:42;9.75;;;5.80;;
52396;SDS011;38322;53.108;6.308;2023-03-19T20:38:09;9.35;;;6.22;;
52396;SDS011;38322;53.108;6.308;2023-03-19T20:40:43;8.73;;;5.65;;
52396;SDS011;38322;53.108;6.308;2023-03-19T20:43:16;10.25;;;5.32;;
52396;SDS011;38322;53.108;6.308;2023-03-19T20:45:52;7.72;;;5.22;;
52396;SDS011;38322;53.108;6.308;2023-03-19T20:48:18;8.45;;;4.60;;
52396;SDS011;38322;53.108;6.308;2023-03-19T20:50:45;6.82;;;3.22;;
52396;SDS011;38322;53.108;6.308;2023-03-19T20:53:12;6.68;;;4.60;;
52396;SDS011;38322;53.108;6.308;2023-03-19T20:55:38;7.90;;;4.38;;
52396;SDS011;38322;53.108;6.308;2023-03-19T20:58:11;11.07;;;4.88;;
